Glenn, California
Current Conditions -  °F | °C
As of 10:48 AM on Friday 21 Nov 2014 (Local Time) from KCIC Reporting Station
Haze Haze  
Wind Chill: 50°   Ceiling: 400
Heat Index: 50°   Visibility: 5mi
Dew Point: 50°   Wind: 0mph
Humidity: 100%   Direction: NA
Pressure: 30.11"   Gusts: NA
Location:  39.52°N, 122.02°W
Report Text: KCIC 211848Z 00000KT 5SM BR OVC004 10/10 A3011
Loading
Personal Weather Stations






























Interactive Weather Map New forecast layout! Learn more

10-Day Weather Forecast

Advertisements
Track Severe Weather on mobile